sensor_id;sensor_type;location;lat;lon;timestamp;P1;durP1;ratioP1;P2;durP2;ratioP2
36799;SDS011;22752;51.960;5.886;2023-04-24T00:02:22;9.40;;;7.93;;
36799;SDS011;22752;51.960;5.886;2023-04-24T00:04:48;8.17;;;7.37;;
36799;SDS011;22752;51.960;5.886;2023-04-24T00:07:14;8.93;;;8.03;;
36799;SDS011;22752;51.960;5.886;2023-04-24T00:09:41;9.63;;;8.73;;
36799;SDS011;22752;51.960;5.886;2023-04-24T00:12:10;9.75;;;8.57;;
36799;SDS011;22752;51.960;5.886;2023-04-24T00:14:35;9.35;;;8.05;;
36799;SDS011;22752;51.960;5.886;2023-04-24T00:17:01;8.50;;;7.80;;
36799;SDS011;22752;51.960;5.886;2023-04-24T00:19:28;8.90;;;8.07;;
36799;SDS011;22752;51.960;5.886;2023-04-24T00:21:54;6.80;;;6.10;;
36799;SDS011;22752;51.960;5.886;2023-04-24T00:24:20;5.17;;;4.67;;
36799;SDS011;22752;51.960;5.886;2023-04-24T00:26:46;4.70;;;4.30;;
36799;SDS011;22752;51.960;5.886;2023-04-24T00:29:11;4.10;;;3.70;;
36799;SDS011;22752;51.960;5.886;2023-04-24T00:31:37;3.50;;;3.20;;
36799;SDS011;22752;51.960;5.886;2023-04-24T00:34:03;3.27;;;2.97;;
36799;SDS011;22752;51.960;5.886;2023-04-24T00:36:29;3.38;;;3.08;;
36799;SDS011;22752;51.960;5.886;2023-04-24T00:38:56;3.33;;;3.03;;
36799;SDS011;22752;51.960;5.886;2023-04-24T00:41:22;3.97;;;2.70;;
36799;SDS011;22752;51.960;5.886;2023-04-24T00:43:48;3.97;;;2.90;;
36799;SDS011;22752;51.960;5.886;2023-04-24T00:46:14;2.93;;;2.33;;
36799;SDS011;22752;51.960;5.886;2023-04-24T00:48:40;6.10;;;2.50;;
36799;SDS011;22752;51.960;5.886;2023-04-24T00:51:06;2.83;;;2.57;;
36799;SDS011;22752;51.960;5.886;2023-04-24T00:53:32;2.60;;;2.33;;
36799;SDS011;22752;51.960;5.886;2023-04-24T00:55:58;3.23;;;2.93;;
36799;SDS011;22752;51.960;5.886;2023-04-24T00:58:24;5.70;;;3.70;;
36799;SDS011;22752;51.960;5.886;2023-04-24T01:00:51;4.80;;;4.40;;
36799;SDS011;22752;51.960;5.886;2023-04-24T01:03:22;5.50;;;4.70;;
36799;SDS011;22752;51.960;5.886;2023-04-24T01:08:17;9.10;;;7.80;;
36799;SDS011;22752;51.960;5.886;2023-04-24T01:10:44;13.07;;;11.67;;
36799;SDS011;22752;51.960;5.886;2023-04-24T01:13:11;14.57;;;12.93;;
36799;SDS011;22752;51.960;5.886;2023-04-24T01:15:36;17.97;;;16.07;;
36799;SDS011;22752;51.960;5.886;2023-04-24T01:18:02;18.83;;;16.77;;
36799;SDS011;22752;51.960;5.886;2023-04-24T01:20:28;20.77;;;17.80;;
36799;SDS011;22752;51.960;5.886;2023-04-24T01:22:55;24.50;;;19.23;;
36799;SDS011;22752;51.960;5.886;2023-04-24T01:25:21;23.42;;;20.02;;
36799;SDS011;22752;51.960;5.886;2023-04-24T01:27:48;25.33;;;20.88;;
36799;SDS011;22752;51.960;5.886;2023-04-24T01:30:13;25.33;;;19.65;;
36799;SDS011;22752;51.960;5.886;2023-04-24T01:32:40;25.23;;;20.15;;
36799;SDS011;22752;51.960;5.886;2023-04-24T01:35:09;26.60;;;21.57;;
36799;SDS011;22752;51.960;5.886;2023-04-24T01:37:35;25.13;;;22.20;;
36799;SDS011;22752;51.960;5.886;2023-04-24T01:40:02;25.23;;;20.10;;
36799;SDS011;22752;51.960;5.886;2023-04-24T01:42:32;26.77;;;21.23;;
36799;SDS011;22752;51.960;5.886;2023-04-24T01:44:58;20.97;;;18.73;;
36799;SDS011;22752;51.960;5.886;2023-04-24T01:47:24;25.55;;;20.23;;
36799;SDS011;22752;51.960;5.886;2023-04-24T01:49:50;23.07;;;19.60;;
36799;SDS011;22752;51.960;5.886;2023-04-24T01:52:16;21.27;;;18.20;;
36799;SDS011;22752;51.960;5.886;2023-04-24T01:54:43;22.23;;;19.77;;
36799;SDS011;22752;51.960;5.886;2023-04-24T01:57:09;22.60;;;18.27;;
36799;SDS011;22752;51.960;5.886;2023-04-24T01:59:35;25.10;;;21.10;;
36799;SDS011;22752;51.960;5.886;2023-04-24T02:02:01;23.33;;;20.40;;
36799;SDS011;22752;51.960;5.886;2023-04-24T02:04:27;27.13;;;20.27;;
36799;SDS011;22752;51.960;5.886;2023-04-24T02:06:53;21.70;;;19.37;;
36799;SDS011;22752;51.960;5.886;2023-04-24T02:09:19;22.47;;;20.10;;
36799;SDS011;22752;51.960;5.886;2023-04-24T02:11:45;22.27;;;19.27;;
36799;SDS011;22752;51.960;5.886;2023-04-24T02:14:11;23.20;;;19.60;;
36799;SDS011;22752;51.960;5.886;2023-04-24T02:16:37;25.73;;;20.48;;
36799;SDS011;22752;51.960;5.886;2023-04-24T02:19:02;23.38;;;20.98;;
36799;SDS011;22752;51.960;5.886;2023-04-24T02:21:28;28.33;;;23.03;;
36799;SDS011;22752;51.960;5.886;2023-04-24T02:23:55;28.37;;;23.07;;
36799;SDS011;22752;51.960;5.886;2023-04-24T02:26:22;25.37;;;22.30;;
36799;SDS011;22752;51.960;5.886;2023-04-24T02:28:47;26.60;;;23.70;;
36799;SDS011;22752;51.960;5.886;2023-04-24T02:31:13;29.23;;;24.73;;
36799;SDS011;22752;51.960;5.886;2023-04-24T02:33:39;27.60;;;22.97;;
36799;SDS011;22752;51.960;5.886;2023-04-24T02:36:05;27.80;;;24.13;;
36799;SDS011;22752;51.960;5.886;2023-04-24T02:38:30;26.93;;;24.13;;
36799;SDS011;22752;51.960;5.886;2023-04-24T02:40:56;30.07;;;25.13;;
36799;SDS011;22752;51.960;5.886;2023-04-24T02:43:22;27.90;;;23.57;;
36799;SDS011;22752;51.960;5.886;2023-04-24T02:45:47;31.23;;;24.23;;
36799;SDS011;22752;51.960;5.886;2023-04-24T02:48:13;27.53;;;24.60;;
36799;SDS011;22752;51.960;5.886;2023-04-24T02:50:39;27.47;;;24.53;;
36799;SDS011;22752;51.960;5.886;2023-04-24T02:53:05;25.17;;;22.50;;
36799;SDS011;22752;51.960;5.886;2023-04-24T02:55:31;27.20;;;23.27;;
36799;SDS011;22752;51.960;5.886;2023-04-24T02:57:56;24.27;;;21.67;;
36799;SDS011;22752;51.960;5.886;2023-04-24T03:00:22;23.75;;;21.17;;
36799;SDS011;22752;51.960;5.886;2023-04-24T03:02:47;26.07;;;23.20;;
36799;SDS011;22752;51.960;5.886;2023-04-24T03:05:14;27.60;;;22.87;;
36799;SDS011;22752;51.960;5.886;2023-04-24T03:07:40;25.13;;;22.23;;
36799;SDS011;22752;51.960;5.886;2023-04-24T03:10:06;27.10;;;21.03;;
36799;SDS011;22752;51.960;5.886;2023-04-24T03:12:32;24.73;;;21.57;;
36799;SDS011;22752;51.960;5.886;2023-04-24T03:14:58;23.13;;;20.03;;
36799;SDS011;22752;51.960;5.886;2023-04-24T03:17:23;24.57;;;21.17;;
36799;SDS011;22752;51.960;5.886;2023-04-24T03:19:49;26.37;;;21.87;;
36799;SDS011;22752;51.960;5.886;2023-04-24T03:22:15;24.43;;;21.77;;
36799;SDS011;22752;51.960;5.886;2023-04-24T03:24:40;25.17;;;21.03;;
36799;SDS011;22752;51.960;5.886;2023-04-24T03:27:06;22.80;;;19.87;;
36799;SDS011;22752;51.960;5.886;2023-04-24T03:29:32;23.67;;;20.75;;
36799;SDS011;22752;51.960;5.886;2023-04-24T03:31:57;23.13;;;20.03;;
36799;SDS011;22752;51.960;5.886;2023-04-24T03:34:23;24.47;;;21.63;;
36799;SDS011;22752;51.960;5.886;2023-04-24T03:36:49;26.17;;;23.43;;
36799;SDS011;22752;51.960;5.886;2023-04-24T03:39:14;28.83;;;24.30;;
36799;SDS011;22752;51.960;5.886;2023-04-24T03:41:40;32.10;;;26.30;;
36799;SDS011;22752;51.960;5.886;2023-04-24T03:44:06;35.33;;;28.80;;
36799;SDS011;22752;51.960;5.886;2023-04-24T03:46:31;39.97;;;32.60;;
36799;SDS011;22752;51.960;5.886;2023-04-24T03:48:57;41.20;;;32.93;;
36799;SDS011;22752;51.960;5.886;2023-04-24T03:51:23;40.27;;;32.90;;
36799;SDS011;22752;51.960;5.886;2023-04-24T03:53:48;42.30;;;34.23;;
36799;SDS011;22752;51.960;5.886;2023-04-24T03:56:14;40.90;;;32.80;;
36799;SDS011;22752;51.960;5.886;2023-04-24T03:58:40;43.17;;;35.97;;
36799;SDS011;22752;51.960;5.886;2023-04-24T04:01:06;46.87;;;37.83;;
36799;SDS011;22752;51.960;5.886;2023-04-24T04:03:32;43.47;;;34.87;;
36799;SDS011;22752;51.960;5.886;2023-04-24T04:05:58;41.07;;;34.07;;
36799;SDS011;22752;51.960;5.886;2023-04-24T04:08:24;43.40;;;35.27;;
36799;SDS011;22752;51.960;5.886;2023-04-24T04:10:50;41.27;;;32.93;;
36799;SDS011;22752;51.960;5.886;2023-04-24T04:13:15;43.30;;;36.03;;
36799;SDS011;22752;51.960;5.886;2023-04-24T04:15:41;42.80;;;34.20;;
36799;SDS011;22752;51.960;5.886;2023-04-24T04:18:07;38.57;;;32.97;;
36799;SDS011;22752;51.960;5.886;2023-04-24T04:20:33;43.50;;;34.47;;
36799;SDS011;22752;51.960;5.886;2023-04-24T04:22:59;45.57;;;32.80;;
36799;SDS011;22752;51.960;5.886;2023-04-24T04:25:24;39.23;;;31.80;;
36799;SDS011;22752;51.960;5.886;2023-04-24T04:27:50;37.17;;;31.27;;
36799;SDS011;22752;51.960;5.886;2023-04-24T04:30:17;36.17;;;29.43;;
36799;SDS011;22752;51.960;5.886;2023-04-24T04:32:43;38.10;;;31.67;;
36799;SDS011;22752;51.960;5.886;2023-04-24T04:35:09;43.27;;;32.70;;
36799;SDS011;22752;51.960;5.886;2023-04-24T04:37:35;38.30;;;30.50;;
36799;SDS011;22752;51.960;5.886;2023-04-24T04:40:01;39.47;;;31.70;;
36799;SDS011;22752;51.960;5.886;2023-04-24T04:42:31;38.37;;;32.63;;
36799;SDS011;22752;51.960;5.886;2023-04-24T04:44:58;42.60;;;31.73;;
36799;SDS011;22752;51.960;5.886;2023-04-24T04:47:24;37.27;;;28.83;;
36799;SDS011;22752;51.960;5.886;2023-04-24T04:49:51;35.43;;;30.00;;
36799;SDS011;22752;51.960;5.886;2023-04-24T04:52:17;37.07;;;32.43;;
36799;SDS011;22752;51.960;5.886;2023-04-24T04:54:43;33.90;;;27.13;;
36799;SDS011;22752;51.960;5.886;2023-04-24T04:57:10;37.40;;;29.80;;
36799;SDS011;22752;51.960;5.886;2023-04-24T04:59:35;33.37;;;26.83;;
36799;SDS011;22752;51.960;5.886;2023-04-24T05:02:02;31.57;;;26.07;;
36799;SDS011;22752;51.960;5.886;2023-04-24T05:04:27;35.30;;;27.03;;
36799;SDS011;22752;51.960;5.886;2023-04-24T05:06:53;34.73;;;28.93;;
36799;SDS011;22752;51.960;5.886;2023-04-24T05:09:19;32.53;;;28.33;;
36799;SDS011;22752;51.960;5.886;2023-04-24T05:11:44;34.13;;;27.17;;
36799;SDS011;22752;51.960;5.886;2023-04-24T05:14:10;30.97;;;27.23;;
36799;SDS011;22752;51.960;5.886;2023-04-24T05:16:37;29.57;;;26.20;;
36799;SDS011;22752;51.960;5.886;2023-04-24T05:19:03;34.67;;;26.10;;
36799;SDS011;22752;51.960;5.886;2023-04-24T05:21:29;29.17;;;24.77;;
36799;SDS011;22752;51.960;5.886;2023-04-24T05:23:55;28.07;;;23.97;;
36799;SDS011;22752;51.960;5.886;2023-04-24T05:26:21;28.17;;;23.80;;
36799;SDS011;22752;51.960;5.886;2023-04-24T05:28:47;28.83;;;23.90;;
36799;SDS011;22752;51.960;5.886;2023-04-24T05:31:13;28.53;;;23.43;;
36799;SDS011;22752;51.960;5.886;2023-04-24T05:33:39;35.47;;;24.80;;
36799;SDS011;22752;51.960;5.886;2023-04-24T05:36:05;27.97;;;22.50;;
36799;SDS011;22752;51.960;5.886;2023-04-24T05:38:31;31.60;;;23.40;;
36799;SDS011;22752;51.960;5.886;2023-04-24T05:40:57;25.30;;;22.40;;
36799;SDS011;22752;51.960;5.886;2023-04-24T05:43:22;25.70;;;22.20;;
36799;SDS011;22752;51.960;5.886;2023-04-24T05:45:48;27.83;;;24.03;;
36799;SDS011;22752;51.960;5.886;2023-04-24T05:48:14;26.20;;;23.17;;
36799;SDS011;22752;51.960;5.886;2023-04-24T05:50:39;25.23;;;20.13;;
36799;SDS011;22752;51.960;5.886;2023-04-24T05:53:05;22.23;;;19.93;;
36799;SDS011;22752;51.960;5.886;2023-04-24T05:55:32;22.07;;;19.67;;
36799;SDS011;22752;51.960;5.886;2023-04-24T05:57:57;20.40;;;17.97;;
36799;SDS011;22752;51.960;5.886;2023-04-24T06:00:24;22.50;;;17.87;;
36799;SDS011;22752;51.960;5.886;2023-04-24T06:02:50;21.67;;;18.00;;
36799;SDS011;22752;51.960;5.886;2023-04-24T06:05:17;18.67;;;15.20;;
36799;SDS011;22752;51.960;5.886;2023-04-24T06:07:43;20.57;;;16.73;;
36799;SDS011;22752;51.960;5.886;2023-04-24T06:10:09;18.20;;;15.57;;
36799;SDS011;22752;51.960;5.886;2023-04-24T06:12:35;20.63;;;15.40;;
36799;SDS011;22752;51.960;5.886;2023-04-24T06:15:01;15.97;;;14.10;;
36799;SDS011;22752;51.960;5.886;2023-04-24T06:17:27;16.70;;;14.70;;
36799;SDS011;22752;51.960;5.886;2023-04-24T06:19:53;16.30;;;14.20;;
36799;SDS011;22752;51.960;5.886;2023-04-24T06:22:18;18.47;;;14.70;;
36799;SDS011;22752;51.960;5.886;2023-04-24T06:24:44;17.43;;;14.73;;
36799;SDS011;22752;51.960;5.886;2023-04-24T06:27:10;15.27;;;13.67;;
36799;SDS011;22752;51.960;5.886;2023-04-24T06:29:35;19.90;;;14.97;;
36799;SDS011;22752;51.960;5.886;2023-04-24T06:32:01;13.93;;;12.27;;
36799;SDS011;22752;51.960;5.886;2023-04-24T06:34:27;16.07;;;13.90;;
36799;SDS011;22752;51.960;5.886;2023-04-24T06:36:53;15.07;;;12.67;;
36799;SDS011;22752;51.960;5.886;2023-04-24T06:39:20;14.17;;;11.70;;
36799;SDS011;22752;51.960;5.886;2023-04-24T06:41:45;13.00;;;10.60;;
36799;SDS011;22752;51.960;5.886;2023-04-24T06:44:11;11.90;;;10.10;;
36799;SDS011;22752;51.960;5.886;2023-04-24T06:46:36;11.90;;;10.63;;
36799;SDS011;22752;51.960;5.886;2023-04-24T06:49:02;12.63;;;11.27;;
36799;SDS011;22752;51.960;5.886;2023-04-24T06:51:28;13.23;;;10.98;;
36799;SDS011;22752;51.960;5.886;2023-04-24T06:53:53;15.37;;;9.50;;
36799;SDS011;22752;51.960;5.886;2023-04-24T06:56:21;11.43;;;9.43;;
36799;SDS011;22752;51.960;5.886;2023-04-24T06:58:47;11.23;;;8.33;;
36799;SDS011;22752;51.960;5.886;2023-04-24T07:01:13;9.77;;;7.40;;
36799;SDS011;22752;51.960;5.886;2023-04-24T07:03:38;9.18;;;7.22;;
36799;SDS011;22752;51.960;5.886;2023-04-24T07:06:04;8.30;;;6.90;;
36799;SDS011;22752;51.960;5.886;2023-04-24T07:08:31;6.50;;;5.30;;
36799;SDS011;22752;51.960;5.886;2023-04-24T07:10:58;6.00;;;5.30;;
36799;SDS011;22752;51.960;5.886;2023-04-24T07:13:23;8.93;;;5.53;;
36799;SDS011;22752;51.960;5.886;2023-04-24T07:15:49;5.40;;;4.00;;
36799;SDS011;22752;51.960;5.886;2023-04-24T07:18:20;6.03;;;4.17;;
36799;SDS011;22752;51.960;5.886;2023-04-24T07:20:46;4.87;;;3.60;;
36799;SDS011;22752;51.960;5.886;2023-04-24T07:23:12;3.90;;;3.60;;
36799;SDS011;22752;51.960;5.886;2023-04-24T07:25:37;4.53;;;3.63;;
36799;SDS011;22752;51.960;5.886;2023-04-24T07:28:04;4.00;;;3.50;;
36799;SDS011;22752;51.960;5.886;2023-04-24T07:30:30;4.03;;;3.63;;
36799;SDS011;22752;51.960;5.886;2023-04-24T07:32:57;3.37;;;2.87;;
36799;SDS011;22752;51.960;5.886;2023-04-24T07:35:23;3.07;;;2.47;;
36799;SDS011;22752;51.960;5.886;2023-04-24T07:37:51;1.70;;;1.60;;
36799;SDS011;22752;51.960;5.886;2023-04-24T07:40:17;3.20;;;1.60;;
36799;SDS011;22752;51.960;5.886;2023-04-24T07:42:43;2.97;;;1.70;;
36799;SDS011;22752;51.960;5.886;2023-04-24T07:45:09;2.07;;;1.90;;
36799;SDS011;22752;51.960;5.886;2023-04-24T07:47:35;2.70;;;2.50;;
36799;SDS011;22752;51.960;5.886;2023-04-24T07:50:02;2.50;;;2.23;;
36799;SDS011;22752;51.960;5.886;2023-04-24T07:52:28;5.83;;;3.73;;
36799;SDS011;22752;51.960;5.886;2023-04-24T07:54:54;5.53;;;3.80;;
36799;SDS011;22752;51.960;5.886;2023-04-24T07:57:23;11.43;;;6.20;;
36799;SDS011;22752;51.960;5.886;2023-04-24T07:59:50;9.00;;;6.37;;
36799;SDS011;22752;51.960;5.886;2023-04-24T08:02:15;12.27;;;7.90;;
36799;SDS011;22752;51.960;5.886;2023-04-24T08:04:41;13.93;;;9.37;;
36799;SDS011;22752;51.960;5.886;2023-04-24T08:07:07;11.87;;;9.53;;
36799;SDS011;22752;51.960;5.886;2023-04-24T08:09:33;17.70;;;10.80;;
36799;SDS011;22752;51.960;5.886;2023-04-24T08:11:59;16.50;;;10.20;;
36799;SDS011;22752;51.960;5.886;2023-04-24T08:14:24;15.97;;;10.13;;
36799;SDS011;22752;51.960;5.886;2023-04-24T08:16:50;19.00;;;11.13;;
36799;SDS011;22752;51.960;5.886;2023-04-24T08:19:17;15.50;;;10.60;;
36799;SDS011;22752;51.960;5.886;2023-04-24T08:21:42;19.43;;;12.20;;
36799;SDS011;22752;51.960;5.886;2023-04-24T08:24:08;18.80;;;12.10;;
36799;SDS011;22752;51.960;5.886;2023-04-24T08:26:34;13.30;;;9.90;;
36799;SDS011;22752;51.960;5.886;2023-04-24T08:28:59;18.43;;;10.77;;
36799;SDS011;22752;51.960;5.886;2023-04-24T08:31:25;14.47;;;9.67;;
36799;SDS011;22752;51.960;5.886;2023-04-24T08:33:51;13.17;;;9.40;;
36799;SDS011;22752;51.960;5.886;2023-04-24T08:36:17;13.50;;;9.33;;
36799;SDS011;22752;51.960;5.886;2023-04-24T08:38:43;19.47;;;11.17;;
36799;SDS011;22752;51.960;5.886;2023-04-24T08:41:08;16.63;;;10.43;;
36799;SDS011;22752;51.960;5.886;2023-04-24T08:43:35;17.13;;;10.93;;
36799;SDS011;22752;51.960;5.886;2023-04-24T08:46:03;18.20;;;11.77;;
36799;SDS011;22752;51.960;5.886;2023-04-24T08:48:29;23.70;;;13.27;;
36799;SDS011;22752;51.960;5.886;2023-04-24T08:50:56;17.27;;;11.07;;
36799;SDS011;22752;51.960;5.886;2023-04-24T08:53:23;19.80;;;11.20;;
36799;SDS011;22752;51.960;5.886;2023-04-24T08:55:50;20.30;;;12.87;;
36799;SDS011;22752;51.960;5.886;2023-04-24T08:58:18;17.03;;;10.87;;
36799;SDS011;22752;51.960;5.886;2023-04-24T09:00:44;19.23;;;10.40;;
36799;SDS011;22752;51.960;5.886;2023-04-24T09:03:16;13.77;;;8.53;;
36799;SDS011;22752;51.960;5.886;2023-04-24T09:05:46;13.07;;;7.13;;
36799;SDS011;22752;51.960;5.886;2023-04-24T09:08:14;13.02;;;6.25;;
36799;SDS011;22752;51.960;5.886;2023-04-24T09:10:42;18.90;;;6.60;;
36799;SDS011;22752;51.960;5.886;2023-04-24T09:13:08;13.63;;;5.57;;
36799;SDS011;22752;51.960;5.886;2023-04-24T09:15:36;19.93;;;5.77;;
36799;SDS011;22752;51.960;5.886;2023-04-24T09:18:02;24.20;;;6.17;;
36799;SDS011;22752;51.960;5.886;2023-04-24T09:20:29;13.83;;;5.50;;
36799;SDS011;22752;51.960;5.886;2023-04-24T09:22:54;9.60;;;4.90;;
36799;SDS011;22752;51.960;5.886;2023-04-24T09:25:22;16.07;;;5.63;;
36799;SDS011;22752;51.960;5.886;2023-04-24T09:27:48;15.53;;;5.17;;
36799;SDS011;22752;51.960;5.886;2023-04-24T09:30:14;16.17;;;5.07;;
36799;SDS011;22752;51.960;5.886;2023-04-24T09:32:46;18.40;;;5.73;;
36799;SDS011;22752;51.960;5.886;2023-04-24T09:35:13;18.97;;;5.40;;
36799;SDS011;22752;51.960;5.886;2023-04-24T09:37:44;21.03;;;5.47;;
36799;SDS011;22752;51.960;5.886;2023-04-24T09:40:12;20.97;;;4.93;;
36799;SDS011;22752;51.960;5.886;2023-04-24T09:42:39;15.40;;;4.50;;
36799;SDS011;22752;51.960;5.886;2023-04-24T09:45:08;13.77;;;4.83;;
36799;SDS011;22752;51.960;5.886;2023-04-24T09:47:36;11.67;;;4.37;;
36799;SDS011;22752;51.960;5.886;2023-04-24T09:50:15;14.97;;;4.33;;
36799;SDS011;22752;51.960;5.886;2023-04-24T09:52:42;21.53;;;4.93;;
36799;SDS011;22752;51.960;5.886;2023-04-24T09:55:19;14.33;;;4.00;;
36799;SDS011;22752;51.960;5.886;2023-04-24T09:57:52;20.80;;;4.23;;
36799;SDS011;22752;51.960;5.886;2023-04-24T10:00:28;17.57;;;4.87;;
36799;SDS011;22752;51.960;5.886;2023-04-24T10:03:00;17.23;;;3.83;;
36799;SDS011;22752;51.960;5.886;2023-04-24T10:05:27;21.93;;;4.87;;
36799;SDS011;22752;51.960;5.886;2023-04-24T10:07:57;13.10;;;4.00;;
36799;SDS011;22752;51.960;5.886;2023-04-24T10:10:28;15.80;;;3.77;;
36799;SDS011;22752;51.960;5.886;2023-04-24T10:12:54;15.30;;;4.15;;
36799;SDS011;22752;51.960;5.886;2023-04-24T10:15:24;11.83;;;3.50;;
36799;SDS011;22752;51.960;5.886;2023-04-24T10:17:51;16.75;;;3.83;;
36799;SDS011;22752;51.960;5.886;2023-04-24T10:20:18;13.30;;;3.83;;
36799;SDS011;22752;51.960;5.886;2023-04-24T10:22:49;14.30;;;3.95;;
36799;SDS011;22752;51.960;5.886;2023-04-24T10:25:16;15.10;;;3.67;;
36799;SDS011;22752;51.960;5.886;2023-04-24T10:27:47;15.48;;;3.63;;
36799;SDS011;22752;51.960;5.886;2023-04-24T10:30:14;13.88;;;3.63;;
36799;SDS011;22752;51.960;5.886;2023-04-24T10:32:40;18.00;;;4.10;;
36799;SDS011;22752;51.960;5.886;2023-04-24T10:35:06;12.98;;;3.67;;
36799;SDS011;22752;51.960;5.886;2023-04-24T10:37:37;12.80;;;3.13;;
36799;SDS011;22752;51.960;5.886;2023-04-24T10:40:25;12.48;;;3.50;;
36799;SDS011;22752;51.960;5.886;2023-04-24T10:42:54;13.43;;;2.83;;
36799;SDS011;22752;51.960;5.886;2023-04-24T10:45:21;12.65;;;3.08;;
36799;SDS011;22752;51.960;5.886;2023-04-24T10:47:58;8.68;;;2.28;;
36799;SDS011;22752;51.960;5.886;2023-04-24T10:50:27;10.68;;;2.50;;
36799;SDS011;22752;51.960;5.886;2023-04-24T10:53:04;10.85;;;2.88;;
36799;SDS011;22752;51.960;5.886;2023-04-24T10:55:50;8.07;;;2.05;;
36799;SDS011;22752;51.960;5.886;2023-04-24T10:58:23;7.50;;;2.08;;
36799;SDS011;22752;51.960;5.886;2023-04-24T11:03:29;9.37;;;2.53;;
36799;SDS011;22752;51.960;5.886;2023-04-24T11:05:58;6.68;;;1.90;;
36799;SDS011;22752;51.960;5.886;2023-04-24T11:08:32;5.85;;;1.90;;
36799;SDS011;22752;51.960;5.886;2023-04-24T11:11:09;6.30;;;2.08;;
36799;SDS011;22752;51.960;5.886;2023-04-24T11:18:51;8.60;;;1.83;;
36799;SDS011;22752;51.960;5.886;2023-04-24T11:21:24;9.75;;;1.77;;
36799;SDS011;22752;51.960;5.886;2023-04-24T11:23:51;7.53;;;2.00;;
36799;SDS011;22752;51.960;5.886;2023-04-24T11:26:23;8.93;;;1.80;;
36799;SDS011;22752;51.960;5.886;2023-04-24T11:28:55;7.25;;;1.33;;
36799;SDS011;22752;51.960;5.886;2023-04-24T11:31:35;4.22;;;1.20;;
36799;SDS011;22752;51.960;5.886;2023-04-24T11:34:12;5.63;;;1.23;;
36799;SDS011;22752;51.960;5.886;2023-04-24T11:36:39;4.25;;;1.13;;
36799;SDS011;22752;51.960;5.886;2023-04-24T11:39:07;3.78;;;1.00;;
36799;SDS011;22752;51.960;5.886;2023-04-24T11:41:33;4.15;;;1.13;;
36799;SDS011;22752;51.960;5.886;2023-04-24T11:44:00;4.30;;;0.90;;
36799;SDS011;22752;51.960;5.886;2023-04-24T11:46:29;3.83;;;1.08;;
36799;SDS011;22752;51.960;5.886;2023-04-24T11:48:56;3.50;;;0.98;;
36799;SDS011;22752;51.960;5.886;2023-04-24T11:51:23;9.77;;;1.27;;
36799;SDS011;22752;51.960;5.886;2023-04-24T11:53:50;4.47;;;1.20;;
36799;SDS011;22752;51.960;5.886;2023-04-24T11:56:19;2.53;;;1.17;;
36799;SDS011;22752;51.960;5.886;2023-04-24T11:58:47;4.82;;;1.35;;
36799;SDS011;22752;51.960;5.886;2023-04-24T12:01:12;3.40;;;0.98;;
36799;SDS011;22752;51.960;5.886;2023-04-24T12:03:38;5.28;;;1.20;;
36799;SDS011;22752;51.960;5.886;2023-04-24T12:06:05;3.63;;;0.90;;
36799;SDS011;22752;51.960;5.886;2023-04-24T12:08:35;3.75;;;1.08;;
36799;SDS011;22752;51.960;5.886;2023-04-24T12:11:02;4.20;;;0.95;;
36799;SDS011;22752;51.960;5.886;2023-04-24T12:13:29;4.47;;;1.10;;
36799;SDS011;22752;51.960;5.886;2023-04-24T12:15:56;5.35;;;0.90;;
36799;SDS011;22752;51.960;5.886;2023-04-24T12:18:22;3.70;;;1.10;;
36799;SDS011;22752;51.960;5.886;2023-04-24T12:20:53;2.78;;;1.00;;
36799;SDS011;22752;51.960;5.886;2023-04-24T12:23:35;3.33;;;0.98;;
36799;SDS011;22752;51.960;5.886;2023-04-24T12:26:05;4.15;;;1.30;;
36799;SDS011;22752;51.960;5.886;2023-04-24T12:28:35;3.50;;;1.30;;
36799;SDS011;22752;51.960;5.886;2023-04-24T12:31:03;3.85;;;1.20;;
36799;SDS011;22752;51.960;5.886;2023-04-24T12:33:32;3.58;;;1.13;;
36799;SDS011;22752;51.960;5.886;2023-04-24T12:35:59;3.92;;;1.13;;
36799;SDS011;22752;51.960;5.886;2023-04-24T12:38:26;2.25;;;0.98;;
36799;SDS011;22752;51.960;5.886;2023-04-24T12:41:01;7.43;;;1.67;;
36799;SDS011;22752;51.960;5.886;2023-04-24T12:43:29;5.22;;;1.10;;
36799;SDS011;22752;51.960;5.886;2023-04-24T12:45:55;5.82;;;1.20;;
36799;SDS011;22752;51.960;5.886;2023-04-24T12:48:20;2.03;;;0.90;;
36799;SDS011;22752;51.960;5.886;2023-04-24T12:50:47;9.02;;;1.30;;
36799;SDS011;22752;51.960;5.886;2023-04-24T12:53:13;7.13;;;1.20;;
36799;SDS011;22752;51.960;5.886;2023-04-24T12:55:40;4.60;;;1.00;;
36799;SDS011;22752;51.960;5.886;2023-04-24T12:58:05;5.28;;;1.20;;
36799;SDS011;22752;51.960;5.886;2023-04-24T13:00:31;6.68;;;1.30;;
36799;SDS011;22752;51.960;5.886;2023-04-24T13:02:57;3.97;;;1.00;;
36799;SDS011;22752;51.960;5.886;2023-04-24T13:05:23;3.10;;;1.00;;
36799;SDS011;22752;51.960;5.886;2023-04-24T13:07:49;5.82;;;1.10;;
36799;SDS011;22752;51.960;5.886;2023-04-24T13:10:14;7.60;;;1.00;;
36799;SDS011;22752;51.960;5.886;2023-04-24T13:12:40;5.78;;;1.27;;
36799;SDS011;22752;51.960;5.886;2023-04-24T13:15:06;10.27;;;1.15;;
36799;SDS011;22752;51.960;5.886;2023-04-24T13:17:32;6.78;;;1.30;;
36799;SDS011;22752;51.960;5.886;2023-04-24T13:19:58;5.07;;;1.40;;
36799;SDS011;22752;51.960;5.886;2023-04-24T13:22:24;5.72;;;1.17;;
36799;SDS011;22752;51.960;5.886;2023-04-24T13:24:50;6.97;;;1.75;;
36799;SDS011;22752;51.960;5.886;2023-04-24T13:27:16;7.50;;;2.00;;
36799;SDS011;22752;51.960;5.886;2023-04-24T13:29:41;7.90;;;1.60;;
36799;SDS011;22752;51.960;5.886;2023-04-24T13:32:07;3.83;;;1.20;;
36799;SDS011;22752;51.960;5.886;2023-04-24T13:34:34;5.93;;;1.55;;
36799;SDS011;22752;51.960;5.886;2023-04-24T13:37:00;6.03;;;1.90;;
36799;SDS011;22752;51.960;5.886;2023-04-24T13:39:26;9.93;;;1.70;;
36799;SDS011;22752;51.960;5.886;2023-04-24T13:41:52;6.03;;;1.77;;
36799;SDS011;22752;51.960;5.886;2023-04-24T13:44:21;5.95;;;1.60;;
36799;SDS011;22752;51.960;5.886;2023-04-24T13:46:47;9.15;;;2.13;;
36799;SDS011;22752;51.960;5.886;2023-04-24T13:49:15;9.85;;;2.78;;
36799;SDS011;22752;51.960;5.886;2023-04-24T13:51:41;9.95;;;2.33;;
36799;SDS011;22752;51.960;5.886;2023-04-24T13:54:07;10.60;;;2.10;;
36799;SDS011;22752;51.960;5.886;2023-04-24T13:56:33;7.95;;;2.10;;
36799;SDS011;22752;51.960;5.886;2023-04-24T13:58:59;11.57;;;2.53;;
36799;SDS011;22752;51.960;5.886;2023-04-24T14:01:25;8.73;;;2.17;;
36799;SDS011;22752;51.960;5.886;2023-04-24T14:03:51;7.97;;;2.17;;
36799;SDS011;22752;51.960;5.886;2023-04-24T14:06:18;6.22;;;1.75;;
36799;SDS011;22752;51.960;5.886;2023-04-24T14:08:44;8.32;;;2.05;;
36799;SDS011;22752;51.960;5.886;2023-04-24T14:11:11;8.50;;;1.90;;
36799;SDS011;22752;51.960;5.886;2023-04-24T14:13:36;9.27;;;2.45;;
36799;SDS011;22752;51.960;5.886;2023-04-24T14:16:03;8.38;;;1.67;;
36799;SDS011;22752;51.960;5.886;2023-04-24T14:18:29;10.25;;;2.13;;
36799;SDS011;22752;51.960;5.886;2023-04-24T14:20:55;7.25;;;2.10;;
36799;SDS011;22752;51.960;5.886;2023-04-24T14:23:20;6.72;;;2.33;;
36799;SDS011;22752;51.960;5.886;2023-04-24T14:25:46;8.82;;;2.38;;
36799;SDS011;22752;51.960;5.886;2023-04-24T14:28:15;8.30;;;2.05;;
36799;SDS011;22752;51.960;5.886;2023-04-24T14:30:41;13.63;;;2.35;;
36799;SDS011;22752;51.960;5.886;2023-04-24T14:33:07;11.35;;;2.55;;
36799;SDS011;22752;51.960;5.886;2023-04-24T14:35:33;8.10;;;2.20;;
36799;SDS011;22752;51.960;5.886;2023-04-24T14:38:00;7.68;;;2.33;;
36799;SDS011;22752;51.960;5.886;2023-04-24T14:40:25;8.63;;;2.35;;
36799;SDS011;22752;51.960;5.886;2023-04-24T14:42:51;5.95;;;2.17;;